createdAt,value
2019-03-31T00:02:13.119Z,102038.48
2019-03-31T00:04:43.168Z,102036.01
2019-03-31T00:07:13.214Z,102044.96
2019-03-31T00:09:42.841Z,102041.08
2019-03-31T00:12:15.631Z,102045.09
2019-03-31T00:14:45.246Z,102045.53
2019-03-31T00:17:14.940Z,102049.45
2019-03-31T00:19:44.530Z,102054.20
2019-03-31T00:22:14.183Z,102051.72
2019-03-31T00:24:43.838Z,102050.27
2019-03-31T00:27:13.402Z,102053.27
2019-03-31T00:29:42.980Z,102048.87
2019-03-31T00:32:12.590Z,102055.47
2019-03-31T00:34:42.147Z,102059.34
2019-03-31T00:37:11.719Z,102056.52
2019-03-31T00:39:41.282Z,102057.36
2019-03-31T00:42:10.818Z,102061.71
2019-03-31T00:44:40.397Z,102063.83
2019-03-31T00:47:09.970Z,102056.81
2019-03-31T00:49:39.616Z,102056.81
2019-03-31T00:52:09.195Z,102058.62
2019-03-31T00:54:38.802Z,102058.55
2019-03-31T00:57:08.378Z,102055.88
2019-03-31T00:59:37.967Z,102054.16
2019-03-31T01:02:11.491Z,102049.12
2019-03-31T01:04:41.419Z,102050.66
2019-03-31T01:07:13.359Z,102057.24
2019-03-31T01:09:43.823Z,102053.61
2019-03-31T01:12:15.174Z,102056.75
2019-03-31T01:14:45.053Z,102056.75
2019-03-31T01:17:14.889Z,102066.24
2019-03-31T01:19:44.508Z,102067.69
2019-03-31T01:22:14.188Z,102067.69
2019-03-31T01:24:43.825Z,102064.78
2019-03-31T01:27:14.025Z,102064.78
2019-03-31T01:29:43.708Z,102062.02
2019-03-31T01:32:13.490Z,102062.02
2019-03-31T01:34:44.799Z,102058.25
2019-03-31T01:37:14.604Z,102060.36
2019-03-31T01:39:44.553Z,102057.72
2019-03-31T01:42:14.191Z,102061.27
2019-03-31T01:44:44.452Z,102044.97
2019-03-31T01:47:14.455Z,102054.34
2019-03-31T01:49:44.087Z,102063.72
2019-03-31T01:52:13.779Z,102060.95
2019-03-31T01:54:43.472Z,102064.98
2019-03-31T01:57:12.994Z,102060.76
2019-03-31T01:59:42.607Z,102072.87
2019-03-31T02:02:16.375Z,102071.84
2019-03-31T02:04:48.775Z,102080.55
2019-03-31T02:07:18.436Z,102084.22
2019-03-31T02:09:48.734Z,102078.95
2019-03-31T02:12:18.443Z,102084.36
2019-03-31T02:14:49.273Z,102085.45
2019-03-31T02:17:19.570Z,102083.95
2019-03-31T02:19:49.227Z,102081.39
2019-03-31T02:22:18.841Z,102081.02
2019-03-31T02:24:48.423Z,102081.27
2019-03-31T02:27:17.971Z,102083.86
2019-03-31T02:29:47.502Z,102083.86
2019-03-31T02:32:23.981Z,102078.34
2019-03-31T02:34:48.521Z,102076.22
2019-03-31T02:37:18.142Z,102075.95
2019-03-31T02:39:48.093Z,102076.17
2019-03-31T02:42:17.668Z,102080.95
2019-03-31T02:44:47.249Z,102072.52
2019-03-31T02:47:16.786Z,102069.07
2019-03-31T02:49:46.331Z,102079.19
2019-03-31T02:52:15.952Z,102082.16
2019-03-31T02:54:45.579Z,102079.08
2019-03-31T02:57:15.988Z,102075.70
2019-03-31T02:59:46.270Z,102075.70
2019-03-31T03:02:16.720Z,102080.69
2019-03-31T03:04:48.141Z,102083.81
2019-03-31T03:07:18.720Z,102087.94
2019-03-31T03:09:51.723Z,102089.52
2019-03-31T03:12:22.871Z,102087.45
2019-03-31T03:14:55.480Z,102091.39
2019-03-31T03:17:25.039Z,102092.53
2019-03-31T03:19:54.604Z,102087.03
2019-03-31T03:22:24.211Z,102087.03
2019-03-31T03:24:53.741Z,102097.70
2019-03-31T03:27:23.633Z,102092.02
2019-03-31T03:29:53.265Z,102097.34
2019-03-31T03:32:22.841Z,102101.91
2019-03-31T03:34:52.435Z,102103.04
2019-03-31T03:37:22.026Z,102112.45
2019-03-31T03:39:51.679Z,102109.48
2019-03-31T03:42:21.277Z,102109.48
2019-03-31T03:44:50.817Z,102095.70
2019-03-31T03:47:20.423Z,102095.70
2019-03-31T03:49:50.012Z,102108.64
2019-03-31T03:52:19.746Z,102111.46
2019-03-31T03:54:49.283Z,102106.05
2019-03-31T03:57:18.821Z,102106.28
2019-03-31T03:59:50.947Z,102111.83
2019-03-31T04:02:20.525Z,102116.86
2019-03-31T04:04:50.159Z,102126.89
2019-03-31T04:07:19.763Z,102132.01
2019-03-31T04:09:50.570Z,102130.14
2019-03-31T04:12:20.253Z,102130.76
2019-03-31T04:14:50.637Z,102133.72
2019-03-31T04:17:20.276Z,102133.72
2019-03-31T04:19:49.874Z,102142.14
2019-03-31T04:22:19.475Z,102147.16
2019-03-31T04:24:49.096Z,102143.64
2019-03-31T04:27:19.259Z,102154.69
2019-03-31T04:29:49.062Z,102154.50
2019-03-31T04:32:18.610Z,102164.42
2019-03-31T04:34:49.745Z,102164.97
2019-03-31T04:37:19.290Z,102175.84
2019-03-31T04:39:48.895Z,102174.11
2019-03-31T04:42:18.462Z,102179.39
2019-03-31T04:44:48.057Z,102179.39
2019-03-31T04:47:20.001Z,102185.45
2019-03-31T04:49:58.393Z,102184.31
2019-03-31T04:52:28.031Z,102183.47
2019-03-31T04:55:00.543Z,102196.13
2019-03-31T04:57:30.108Z,102207.50
2019-03-31T04:59:59.766Z,102207.11
2019-03-31T05:02:29.406Z,102207.11
2019-03-31T05:04:59.065Z,102208.00
2019-03-31T05:07:28.733Z,102208.00
2019-03-31T05:09:58.306Z,102208.43
2019-03-31T05:12:27.880Z,102209.48
2019-03-31T05:14:57.552Z,102210.83
2019-03-31T05:17:28.324Z,102213.03
2019-03-31T05:19:57.909Z,102209.27
2019-03-31T05:22:27.779Z,102209.27
2019-03-31T05:24:57.328Z,102215.53
2019-03-31T05:27:26.942Z,102209.27
2019-03-31T05:29:56.534Z,102211.61
2019-03-31T05:32:26.179Z,102213.17
2019-03-31T05:34:55.718Z,102221.64
2019-03-31T05:37:25.427Z,102215.98
2019-03-31T05:39:54.964Z,102224.78
2019-03-31T05:42:24.529Z,102234.17
2019-03-31T05:44:54.118Z,102243.23
2019-03-31T05:49:52.414Z,102246.75
2019-03-31T05:52:24.029Z,102250.42
2019-03-31T05:54:53.625Z,102250.42
2019-03-31T05:57:23.224Z,102248.44
2019-03-31T05:59:52.786Z,102245.34
2019-03-31T06:02:22.387Z,102246.53
2019-03-31T06:04:51.967Z,102241.62
2019-03-31T06:07:21.500Z,102245.44
2019-03-31T06:09:51.283Z,102249.96
2019-03-31T06:12:20.858Z,102249.96
2019-03-31T06:14:50.577Z,102257.63
2019-03-31T06:17:20.167Z,102260.26
2019-03-31T06:19:49.727Z,102260.26
2019-03-31T06:22:19.287Z,102269.23
2019-03-31T06:24:48.943Z,102269.23
2019-03-31T06:27:18.610Z,102270.67
2019-03-31T06:29:48.137Z,102271.56
2019-03-31T06:32:17.785Z,102277.10
2019-03-31T06:34:48.065Z,102277.10
2019-03-31T06:37:19.023Z,102287.01
2019-03-31T06:39:48.616Z,102287.18
2019-03-31T06:42:18.168Z,102287.18
2019-03-31T06:44:47.721Z,102290.52
2019-03-31T06:47:17.277Z,102290.52
2019-03-31T06:49:46.929Z,102301.19
2019-03-31T06:52:16.465Z,102301.19
2019-03-31T06:54:46.058Z,102294.00
2019-03-31T06:57:15.691Z,102294.00
2019-03-31T06:59:45.270Z,102301.49
2019-03-31T07:02:14.879Z,102303.48
2019-03-31T07:04:44.397Z,102303.81
2019-03-31T07:07:13.972Z,102307.02
2019-03-31T07:09:43.599Z,102306.33
2019-03-31T07:12:13.294Z,102310.92
2019-03-31T07:14:42.941Z,102310.92
2019-03-31T07:17:12.638Z,102312.86
2019-03-31T07:19:42.179Z,102318.14
2019-03-31T07:22:11.756Z,102316.86
2019-03-31T07:24:41.410Z,102323.84
2019-03-31T07:27:10.963Z,102327.56
2019-03-31T07:29:40.523Z,102327.56
2019-03-31T07:32:10.057Z,102334.66
2019-03-31T07:34:39.605Z,102339.45
2019-03-31T07:37:09.176Z,102344.30
2019-03-31T07:39:38.718Z,102340.02
2019-03-31T07:42:08.485Z,102340.02
2019-03-31T07:44:38.123Z,102347.08
2019-03-31T07:47:07.752Z,102347.08
2019-03-31T07:49:37.365Z,102357.64
2019-03-31T07:52:07.007Z,102357.64
2019-03-31T07:54:37.609Z,102360.17
2019-03-31T07:57:07.356Z,102362.71
2019-03-31T07:59:36.941Z,102365.58
2019-03-31T08:02:06.588Z,102368.66
2019-03-31T08:07:11.972Z,102364.56
2019-03-31T08:09:41.858Z,102364.56
2019-03-31T08:12:11.453Z,102363.29
2019-03-31T08:14:42.498Z,102362.16
2019-03-31T08:17:12.059Z,102365.36
2019-03-31T08:19:43.238Z,102365.36
2019-03-31T08:22:12.893Z,102371.42
2019-03-31T08:24:43.771Z,102371.42
2019-03-31T08:27:15.124Z,102371.41
2019-03-31T08:29:51.846Z,102376.03
2019-03-31T08:32:16.662Z,102376.03
2019-03-31T08:34:46.349Z,102383.25
2019-03-31T08:37:15.876Z,102385.31
2019-03-31T08:39:45.557Z,102385.31
2019-03-31T08:42:15.095Z,102380.54
2019-03-31T08:44:44.689Z,102395.61
2019-03-31T08:47:14.319Z,102395.72
2019-03-31T08:49:43.999Z,102398.52
2019-03-31T08:52:13.561Z,102405.80
2019-03-31T08:54:43.124Z,102405.80
2019-03-31T08:57:12.689Z,102403.52
2019-03-31T08:59:42.265Z,102409.73
2019-03-31T09:02:32.893Z,102411.84
2019-03-31T09:05:02.533Z,102414.38
2019-03-31T09:07:32.146Z,102421.93
2019-03-31T09:10:01.771Z,102417.38
2019-03-31T09:12:31.314Z,102421.66
2019-03-31T09:15:01.063Z,102425.34
2019-03-31T09:17:30.609Z,102432.93
2019-03-31T09:20:00.461Z,102434.27
2019-03-31T09:22:30.112Z,102430.79
2019-03-31T09:24:59.706Z,102433.11
2019-03-31T09:27:29.247Z,102433.11
2019-03-31T09:30:04.070Z,102430.30
2019-03-31T09:32:33.712Z,102433.67
2019-03-31T09:35:03.412Z,102429.81
2019-03-31T09:37:33.426Z,102431.95
2019-03-31T09:40:04.282Z,102428.53
2019-03-31T09:42:33.934Z,102437.11
2019-03-31T09:45:12.261Z,102437.77
2019-03-31T09:47:42.510Z,102437.56
2019-03-31T09:50:16.842Z,102434.68
2019-03-31T09:52:44.793Z,102440.29
2019-03-31T09:55:14.586Z,102437.44
2019-03-31T09:57:44.368Z,102436.08
2019-03-31T10:00:16.483Z,102422.20
2019-03-31T10:02:46.244Z,102430.54
2019-03-31T10:05:16.194Z,102429.20
2019-03-31T10:07:56.108Z,102430.83
2019-03-31T10:10:32.218Z,102432.89
2019-03-31T10:13:01.898Z,102434.52
2019-03-31T10:15:32.956Z,102434.52
2019-03-31T10:18:02.666Z,102430.10
2019-03-31T10:20:32.402Z,102430.10
2019-03-31T10:23:04.902Z,102438.61
2019-03-31T10:25:55.725Z,102436.49
2019-03-31T10:28:25.270Z,102439.14
2019-03-31T10:30:54.894Z,102436.78
2019-03-31T10:33:24.529Z,102434.95
2019-03-31T10:35:54.205Z,102433.42
2019-03-31T10:38:23.802Z,102430.78
2019-03-31T10:40:53.451Z,102438.62
2019-03-31T10:43:23.017Z,102432.86
2019-03-31T10:46:30.082Z,102431.13
2019-03-31T10:48:59.691Z,102432.14
2019-03-31T10:51:29.224Z,102431.95
2019-03-31T10:53:58.817Z,102435.55
2019-03-31T10:56:28.435Z,102437.41
2019-03-31T10:58:57.986Z,102436.66
2019-03-31T11:01:27.636Z,102436.73
2019-03-31T11:03:57.244Z,102426.25
2019-03-31T11:06:26.787Z,102434.27
2019-03-31T11:08:56.452Z,102434.27
2019-03-31T11:11:26.131Z,102433.50
2019-03-31T11:13:55.833Z,102435.29
2019-03-31T11:16:25.453Z,102426.55
2019-03-31T11:18:54.987Z,102420.19
2019-03-31T11:21:32.819Z,102423.92
2019-03-31T11:24:02.399Z,102422.52
2019-03-31T11:26:34.758Z,102411.52
2019-03-31T11:29:04.460Z,102423.67
2019-03-31T11:31:34.008Z,102417.91
2019-03-31T11:34:03.594Z,102419.31
2019-03-31T11:36:35.459Z,102410.45
2019-03-31T11:39:06.739Z,102426.83
2019-03-31T11:41:36.374Z,102413.92
2019-03-31T11:44:06.143Z,102422.14
2019-03-31T11:46:37.455Z,102427.27
2019-03-31T11:49:09.794Z,102416.31
2019-03-31T11:51:39.577Z,102416.31
2019-03-31T11:54:09.129Z,102417.67
2019-03-31T11:56:39.741Z,102420.40
2019-03-31T11:59:09.341Z,102414.49
2019-03-31T12:01:38.882Z,102415.65
2019-03-31T12:04:08.561Z,102409.29
2019-03-31T12:06:38.402Z,102409.29
2019-03-31T12:09:08.922Z,102415.25
2019-03-31T12:11:38.507Z,102415.25
2019-03-31T12:14:08.150Z,102412.22
2019-03-31T12:16:38.695Z,102408.23
2019-03-31T12:19:08.736Z,102422.45
2019-03-31T12:21:38.306Z,102414.80
2019-03-31T12:24:07.892Z,102414.80
2019-03-31T12:26:37.556Z,102418.86
2019-03-31T12:29:07.187Z,102407.00
2019-03-31T12:31:36.929Z,102407.05
2019-03-31T12:34:06.512Z,102407.05
2019-03-31T12:36:36.165Z,102399.52
2019-03-31T12:39:08.286Z,102399.78
2019-03-31T12:41:37.858Z,102409.10
2019-03-31T12:44:13.383Z,102409.77
2019-03-31T12:46:43.093Z,102407.33
2019-03-31T12:49:12.787Z,102397.95
2019-03-31T12:51:42.752Z,102398.86
2019-03-31T12:54:12.550Z,102396.04
2019-03-31T12:56:42.098Z,102408.08
2019-03-31T12:59:11.987Z,102396.28
2019-03-31T13:01:41.884Z,102397.69
2019-03-31T13:04:11.467Z,102389.77
2019-03-31T13:06:41.111Z,102389.77
2019-03-31T13:09:10.792Z,102380.31
2019-03-31T13:11:40.503Z,102380.31
2019-03-31T13:14:10.206Z,102371.82
2019-03-31T13:16:39.839Z,102376.13
2019-03-31T13:19:09.488Z,102377.22
2019-03-31T13:21:39.032Z,102375.53
2019-03-31T13:24:08.746Z,102375.53
2019-03-31T13:26:38.720Z,102374.84
2019-03-31T13:29:08.327Z,102368.94
2019-03-31T13:31:37.874Z,102372.81
2019-03-31T13:34:07.429Z,102372.81
2019-03-31T13:36:36.989Z,102373.05
2019-03-31T13:39:08.327Z,102369.34
2019-03-31T13:41:37.917Z,102352.99
2019-03-31T13:44:07.529Z,102362.81
2019-03-31T13:46:37.073Z,102358.41
2019-03-31T13:49:06.630Z,102361.80
2019-03-31T13:51:36.204Z,102354.14
2019-03-31T13:54:05.959Z,102353.09
2019-03-31T13:56:35.833Z,102354.86
2019-03-31T13:59:08.975Z,102344.45
2019-03-31T14:01:37.696Z,102349.84
2019-03-31T14:04:07.310Z,102351.41
2019-03-31T14:06:36.914Z,102344.84
2019-03-31T14:09:09.379Z,102344.84
2019-03-31T14:11:39.035Z,102344.32
2019-03-31T14:14:08.667Z,102344.66
2019-03-31T14:16:38.373Z,102331.52
2019-03-31T14:19:08.433Z,102340.67
2019-03-31T14:21:40.118Z,102340.67
2019-03-31T14:24:09.285Z,102339.08
2019-03-31T14:26:38.851Z,102339.08
2019-03-31T14:29:08.419Z,102335.78
2019-03-31T14:31:37.996Z,102331.75
2019-03-31T14:34:07.600Z,102334.58
2019-03-31T14:36:38.472Z,102323.59
2019-03-31T14:39:11.764Z,102324.78
2019-03-31T14:41:41.499Z,102333.08
2019-03-31T14:44:11.181Z,102328.37
2019-03-31T14:46:40.826Z,102328.37
2019-03-31T14:49:10.441Z,102330.17
2019-03-31T14:51:40.034Z,102332.72
2019-03-31T14:54:10.224Z,102336.23
2019-03-31T14:56:39.832Z,102336.23
2019-03-31T14:59:09.421Z,102333.91
2019-03-31T15:01:38.996Z,102335.78
2019-03-31T15:04:08.644Z,102328.44
2019-03-31T15:06:38.259Z,102335.88
2019-03-31T15:09:08.842Z,102333.62
2019-03-31T15:11:38.453Z,102335.80
2019-03-31T15:14:08.011Z,102336.72
2019-03-31T15:16:37.597Z,102340.45
2019-03-31T15:19:07.203Z,102337.80
2019-03-31T15:21:44.093Z,102332.55
2019-03-31T15:24:08.132Z,102326.50
2019-03-31T15:26:37.673Z,102335.27
2019-03-31T15:29:07.420Z,102337.09
2019-03-31T15:31:37.119Z,102333.28
2019-03-31T15:34:06.789Z,102328.03
2019-03-31T15:36:36.358Z,102329.95
2019-03-31T15:39:09.434Z,102325.05
2019-03-31T15:41:40.711Z,102330.75
2019-03-31T15:44:10.234Z,102323.03
2019-03-31T15:46:39.765Z,102326.19
2019-03-31T15:49:09.352Z,102324.13
2019-03-31T15:51:38.930Z,102322.58
2019-03-31T15:54:08.481Z,102321.30
2019-03-31T15:56:38.073Z,102330.55
2019-03-31T15:59:07.668Z,102325.19
2019-03-31T16:01:38.112Z,102334.11
2019-03-31T16:04:07.699Z,102329.03
2019-03-31T16:06:37.258Z,102329.03
2019-03-31T16:09:22.335Z,102319.07
2019-03-31T16:11:52.879Z,102330.21
2019-03-31T16:14:09.973Z,102325.78
2019-03-31T16:16:41.436Z,102326.62
2019-03-31T16:19:12.570Z,102331.77
2019-03-31T16:21:44.150Z,102333.72
2019-03-31T16:24:12.688Z,102332.03
2019-03-31T16:26:41.676Z,102338.44
2019-03-31T16:29:10.776Z,102326.82
2019-03-31T16:31:39.824Z,102330.16
2019-03-31T16:34:08.910Z,102326.27
2019-03-31T16:36:37.921Z,102326.27
2019-03-31T16:39:07.594Z,102326.94
2019-03-31T16:41:36.662Z,102334.20
2019-03-31T16:44:05.827Z,102330.03
2019-03-31T16:46:34.893Z,102329.75
2019-03-31T16:49:04.136Z,102333.95
2019-03-31T16:51:33.207Z,102329.09
2019-03-31T16:54:05.133Z,102329.09
2019-03-31T16:56:34.185Z,102329.34
2019-03-31T16:59:03.293Z,102338.26
2019-03-31T17:01:32.407Z,102329.72
2019-03-31T17:04:01.581Z,102343.23
2019-03-31T17:06:30.685Z,102336.96
2019-03-31T17:08:59.769Z,102341.63
2019-03-31T17:11:28.857Z,102347.34
2019-03-31T17:13:58.022Z,102343.92
2019-03-31T17:16:27.442Z,102344.11
2019-03-31T17:18:57.189Z,102344.11
2019-03-31T17:21:36.546Z,102337.11
2019-03-31T17:24:05.402Z,102337.11
2019-03-31T17:26:34.567Z,102338.22
2019-03-31T17:29:03.706Z,102339.59
2019-03-31T17:31:38.274Z,102338.48
2019-03-31T17:34:10.685Z,102338.48
2019-03-31T17:36:39.850Z,102345.01
2019-03-31T17:39:08.998Z,102336.69
2019-03-31T17:41:39.429Z,102336.69
2019-03-31T17:44:09.170Z,102335.87
2019-03-31T17:46:40.929Z,102338.11
2019-03-31T17:50:10.212Z,102337.77
2019-03-31T17:52:39.253Z,102335.91
2019-03-31T17:55:08.687Z,102337.34
2019-03-31T17:57:42.394Z,102337.34
2019-03-31T18:00:13.288Z,102340.23
2019-03-31T18:02:42.279Z,102343.73
2019-03-31T18:05:12.779Z,102347.28
2019-03-31T18:07:45.651Z,102347.28
2019-03-31T18:10:21.577Z,102358.20
2019-03-31T18:12:50.969Z,102358.20
2019-03-31T18:15:22.488Z,102361.84
2019-03-31T18:17:51.699Z,102362.34
2019-03-31T18:20:20.810Z,102360.80
2019-03-31T18:22:49.946Z,102357.44
2019-03-31T18:25:19.031Z,102357.44
2019-03-31T18:27:49.183Z,102372.28
2019-03-31T18:30:18.409Z,102378.43
2019-03-31T18:32:47.684Z,102377.76
2019-03-31T18:35:17.217Z,102378.96
2019-03-31T18:37:46.242Z,102377.75
2019-03-31T18:40:15.417Z,102380.84
2019-03-31T18:42:44.682Z,102382.90
2019-03-31T18:45:14.431Z,102385.91
2019-03-31T18:47:43.625Z,102391.09
2019-03-31T18:50:17.935Z,102403.25
2019-03-31T18:52:49.004Z,102403.25
2019-03-31T18:55:36.409Z,102407.53
2019-03-31T18:58:20.386Z,102397.59
2019-03-31T19:01:14.709Z,102407.93
2019-03-31T19:04:01.586Z,102417.53
2019-03-31T19:06:55.811Z,102419.39
2019-03-31T19:09:56.197Z,102423.11
2019-03-31T19:12:44.517Z,102425.40
2019-03-31T19:15:43.171Z,102430.44
2019-03-31T19:18:37.006Z,102430.44
2019-03-31T19:21:27.155Z,102426.25
2019-03-31T19:24:05.711Z,102429.77
2019-03-31T19:27:01.723Z,102430.41
2019-03-31T19:32:29.469Z,102436.95
2019-03-31T19:35:14.619Z,102436.95
2019-03-31T19:38:14.136Z,102443.14
2019-03-31T19:41:20.509Z,102443.14
2019-03-31T19:43:58.437Z,102445.81
2019-03-31T19:46:55.795Z,102448.27
2019-03-31T19:49:36.189Z,102448.27
2019-03-31T19:52:26.430Z,102457.00
2019-03-31T19:55:26.814Z,102461.36
2019-03-31T19:58:04.061Z,102467.14
2019-03-31T20:00:46.537Z,102467.14
2019-03-31T20:03:41.985Z,102465.55
2019-03-31T20:06:29.697Z,102466.52
2019-03-31T20:09:08.730Z,102467.48
2019-03-31T20:11:47.381Z,102467.48
2019-03-31T20:14:40.900Z,102469.29
2019-03-31T20:17:21.627Z,102464.20
2019-03-31T20:20:19.512Z,102464.20
2019-03-31T20:23:20.585Z,102471.17
2019-03-31T20:29:08.599Z,102474.31
2019-03-31T21:03:06.527Z,102494.96
2019-03-31T21:35:41.133Z,102525.94
2019-03-31T21:46:58.170Z,102527.20
2019-03-31T21:56:01.514Z,102529.28
2019-03-31T21:59:18.186Z,102529.28
2019-03-31T22:09:24.567Z,102529.73
2019-03-31T22:49:09.716Z,102333.66
2019-03-31T23:52:55.927Z,102508.39
